createdAt,value
2022-07-31T00:00:39.497Z,88.49
2022-07-31T00:03:41.932Z,83.93
2022-07-31T00:06:44.287Z,88.11
2022-07-31T00:09:53.866Z,88.63
2022-07-31T00:12:56.100Z,90.78
2022-07-31T00:15:57.566Z,94.18
2022-07-31T00:18:59.102Z,88.97
2022-07-31T00:22:00.555Z,85.33
2022-07-31T00:25:02.134Z,78.68
2022-07-31T00:28:04.641Z,75.73
2022-07-31T00:31:06.176Z,77.96
2022-07-31T00:34:07.682Z,86.47
2022-07-31T00:37:10.038Z,85.74
2022-07-31T00:40:14.001Z,83.86
2022-07-31T00:43:15.918Z,88.40
2022-07-31T00:46:17.341Z,83.88
2022-07-31T00:49:19.268Z,74.92
2022-07-31T00:52:20.878Z,71.40
2022-07-31T00:55:22.822Z,78.19
2022-07-31T00:58:24.925Z,80.72
2022-07-31T01:01:26.483Z,72.72
2022-07-31T01:04:28.220Z,71.67
2022-07-31T01:07:32.902Z,74.74
2022-07-31T01:10:59.206Z,76.73
2022-07-31T01:14:03.880Z,76.79
2022-07-31T01:17:07.807Z,76.56
2022-07-31T01:20:09.894Z,82.11
2022-07-31T01:23:23.279Z,82.99
2022-07-31T01:26:37.758Z,83.42
2022-07-31T01:29:53.373Z,82.91
2022-07-31T01:32:58.137Z,76.80
2022-07-31T01:36:16.371Z,77.68
2022-07-31T01:39:18.970Z,78.23
2022-07-31T01:42:25.749Z,79.07
2022-07-31T01:45:29.145Z,87.49
2022-07-31T01:48:33.831Z,85.22
2022-07-31T01:51:36.084Z,95.54
2022-07-31T01:54:38.676Z,100.00
2022-07-31T01:57:42.672Z,100.00
2022-07-31T02:00:44.991Z,100.00
2022-07-31T02:03:51.427Z,100.00
2022-07-31T02:06:59.722Z,100.00
2022-07-31T02:10:01.942Z,100.00
2022-07-31T02:13:05.384Z,100.00
2022-07-31T02:16:07.824Z,100.00
2022-07-31T02:19:11.478Z,100.00
2022-07-31T02:22:12.944Z,100.00
2022-07-31T02:25:14.434Z,100.00
2022-07-31T02:28:20.438Z,99.51
2022-07-31T02:31:23.241Z,100.00
2022-07-31T02:34:29.172Z,100.00
2022-07-31T02:37:34.835Z,100.00
2022-07-31T02:40:37.822Z,100.00
2022-07-31T02:43:39.573Z,100.00
2022-07-31T02:46:44.955Z,100.00
2022-07-31T02:49:47.077Z,100.00
2022-07-31T02:52:48.539Z,100.00
2022-07-31T02:55:51.663Z,100.00
2022-07-31T02:58:53.144Z,100.00
2022-07-31T03:01:55.702Z,100.00
2022-07-31T03:04:57.187Z,100.00
2022-07-31T03:07:59.792Z,100.00
2022-07-31T03:11:01.641Z,100.00
2022-07-31T03:14:04.453Z,100.00
2022-07-31T03:17:08.089Z,100.00
2022-07-31T03:20:10.680Z,100.00
2022-07-31T03:23:13.329Z,100.00
2022-07-31T03:26:15.702Z,100.00
2022-07-31T03:29:36.120Z,100.00
2022-07-31T03:32:38.583Z,100.00
2022-07-31T03:35:42.407Z,100.00
2022-07-31T03:38:50.485Z,100.00
2022-07-31T03:41:54.968Z,100.00
2022-07-31T03:44:56.638Z,100.00
2022-07-31T03:47:58.305Z,100.00
2022-07-31T03:51:00.262Z,100.00
2022-07-31T03:54:01.901Z,100.00
2022-07-31T03:57:03.881Z,100.00
2022-07-31T04:00:09.108Z,100.00
2022-07-31T04:03:18.352Z,100.00
2022-07-31T04:06:19.825Z,100.00
2022-07-31T04:09:21.987Z,100.00
2022-07-31T04:12:23.545Z,100.00
2022-07-31T04:15:25.375Z,100.00
2022-07-31T04:18:26.970Z,100.00
2022-07-31T04:21:28.537Z,100.00
2022-07-31T04:24:30.003Z,100.00
2022-07-31T04:27:32.106Z,100.00
2022-07-31T04:30:33.666Z,100.00
2022-07-31T04:33:35.253Z,100.00
2022-07-31T04:36:48.592Z,100.00
2022-07-31T04:39:50.059Z,100.00
2022-07-31T04:42:51.631Z,100.00
2022-07-31T04:45:53.131Z,100.00
2022-07-31T04:48:54.704Z,100.00
2022-07-31T04:51:57.331Z,98.87
2022-07-31T04:54:58.897Z,96.18
2022-07-31T04:58:00.329Z,98.37
2022-07-31T05:01:02.727Z,100.00
2022-07-31T05:04:05.574Z,94.46
2022-07-31T05:07:06.987Z,89.63
2022-07-31T05:10:09.041Z,94.22
2022-07-31T05:13:10.452Z,94.76
2022-07-31T05:16:12.563Z,100.00
2022-07-31T05:19:14.832Z,97.71
2022-07-31T05:22:16.614Z,100.00
2022-07-31T05:25:20.309Z,100.00
2022-07-31T05:28:29.615Z,98.90
2022-07-31T05:31:31.615Z,99.46
2022-07-31T05:34:33.059Z,100.00
2022-07-31T05:37:34.928Z,96.39
2022-07-31T05:40:36.401Z,90.85
2022-07-31T05:43:38.227Z,94.86
2022-07-31T05:46:39.712Z,93.94
2022-07-31T05:49:41.133Z,96.66
2022-07-31T05:52:42.770Z,96.89
2022-07-31T05:55:45.531Z,94.27
2022-07-31T05:58:48.543Z,94.55
2022-07-31T06:01:50.305Z,92.18
2022-07-31T06:04:51.907Z,91.23
2022-07-31T06:07:54.469Z,91.31
2022-07-31T06:10:56.253Z,91.08
2022-07-31T06:13:58.341Z,87.60
2022-07-31T06:16:59.832Z,84.11
2022-07-31T06:20:02.266Z,83.16
2022-07-31T06:23:03.994Z,79.76
2022-07-31T06:26:24.281Z,79.56
2022-07-31T06:29:41.100Z,76.63
2022-07-31T06:32:43.792Z,76.61
2022-07-31T06:35:47.393Z,73.30
2022-07-31T06:38:48.895Z,79.87
2022-07-31T06:41:50.429Z,73.67
2022-07-31T06:44:52.792Z,83.74
2022-07-31T06:47:54.474Z,88.96
2022-07-31T06:51:14.653Z,75.89
2022-07-31T06:54:17.371Z,75.54
2022-07-31T06:57:19.123Z,67.63
2022-07-31T07:00:21.041Z,77.78
2022-07-31T07:03:22.724Z,65.98
2022-07-31T07:06:24.685Z,64.08
2022-07-31T07:09:26.147Z,63.98
2022-07-31T07:12:28.503Z,64.61
2022-07-31T07:15:30.027Z,63.13
2022-07-31T07:18:31.694Z,65.50
2022-07-31T07:21:34.589Z,63.64
2022-07-31T07:24:36.109Z,64.47
2022-07-31T07:27:37.619Z,66.37
2022-07-31T07:30:39.821Z,65.54
2022-07-31T07:33:42.927Z,64.01
2022-07-31T07:36:44.614Z,67.80
2022-07-31T07:39:46.339Z,70.95
2022-07-31T07:42:47.866Z,67.95
2022-07-31T07:45:49.452Z,68.94
2022-07-31T07:48:51.870Z,65.22
2022-07-31T07:52:10.294Z,64.74
2022-07-31T07:55:12.717Z,61.73
2022-07-31T07:58:14.227Z,63.55
2022-07-31T08:01:16.232Z,63.35
2022-07-31T08:04:17.753Z,62.98
2022-07-31T08:07:42.714Z,61.39
2022-07-31T08:10:44.488Z,63.55
2022-07-31T08:13:50.516Z,61.23
2022-07-31T08:16:53.617Z,62.01
2022-07-31T08:19:55.085Z,57.73
2022-07-31T08:22:56.782Z,58.30
2022-07-31T08:25:58.310Z,55.71
2022-07-31T08:29:00.220Z,52.46
2022-07-31T08:32:07.137Z,52.92
2022-07-31T08:35:09.018Z,53.00
2022-07-31T08:38:10.502Z,49.26
2022-07-31T08:41:14.245Z,47.73
2022-07-31T08:44:15.929Z,47.90
2022-07-31T08:47:17.930Z,53.31
2022-07-31T08:50:19.705Z,49.25
2022-07-31T08:53:22.770Z,47.57
2022-07-31T08:56:25.681Z,53.80
2022-07-31T08:59:27.126Z,48.45
2022-07-31T09:02:28.665Z,50.78
2022-07-31T09:05:42.365Z,45.35
2022-07-31T09:08:44.420Z,46.30
2022-07-31T09:11:50.426Z,44.77
2022-07-31T09:14:51.897Z,48.60
2022-07-31T09:17:54.546Z,51.25
2022-07-31T09:20:58.970Z,46.81
2022-07-31T09:24:00.625Z,45.49
2022-07-31T09:27:07.883Z,45.60
2022-07-31T09:30:09.909Z,46.08
2022-07-31T09:33:16.320Z,45.15
2022-07-31T09:36:22.989Z,42.96
2022-07-31T09:39:26.936Z,45.59
2022-07-31T09:42:45.829Z,44.31
2022-07-31T09:46:06.141Z,43.11
2022-07-31T09:49:07.905Z,46.54
2022-07-31T09:52:19.660Z,46.37
2022-07-31T09:55:21.732Z,43.91
2022-07-31T09:58:25.465Z,43.78
2022-07-31T10:01:27.967Z,46.34
2022-07-31T10:04:30.527Z,44.42
2022-07-31T10:07:35.775Z,44.22
2022-07-31T10:10:37.428Z,44.19
2022-07-31T10:13:44.626Z,45.26
2022-07-31T10:16:48.563Z,47.60
2022-07-31T10:19:51.013Z,49.56
2022-07-31T10:23:27.238Z,49.93
2022-07-31T10:26:57.441Z,45.90
2022-07-31T10:29:51.375Z,49.86
2022-07-31T10:32:53.502Z,51.98
2022-07-31T10:36:15.229Z,48.89
2022-07-31T10:39:35.845Z,44.60
2022-07-31T10:42:43.094Z,44.87
2022-07-31T10:45:52.659Z,48.15
2022-07-31T10:48:54.503Z,44.95
2022-07-31T10:51:56.124Z,46.03
2022-07-31T10:55:01.034Z,48.04
2022-07-31T10:58:09.155Z,44.80
2022-07-31T11:01:11.987Z,44.58
2022-07-31T11:04:32.213Z,46.43
2022-07-31T11:07:33.705Z,45.00
2022-07-31T11:10:35.400Z,50.55
2022-07-31T11:13:48.218Z,44.46
2022-07-31T11:16:51.025Z,46.32
2022-07-31T11:19:52.718Z,44.83
2022-07-31T11:23:15.091Z,41.85
2022-07-31T11:26:17.145Z,43.26
2022-07-31T11:29:59.154Z,43.30
2022-07-31T11:32:58.753Z,41.34
2022-07-31T11:36:17.925Z,41.06
2022-07-31T11:39:19.415Z,43.36
2022-07-31T11:42:32.057Z,40.16
2022-07-31T11:45:46.035Z,40.33
2022-07-31T11:48:49.513Z,38.81
2022-07-31T11:52:00.312Z,39.38
2022-07-31T11:55:10.066Z,35.87
2022-07-31T11:58:11.799Z,36.67
2022-07-31T12:01:13.420Z,39.08
2022-07-31T12:04:20.710Z,38.30
2022-07-31T12:07:22.312Z,39.51
2022-07-31T12:10:24.098Z,37.91
2022-07-31T12:13:27.054Z,37.48
2022-07-31T12:16:39.639Z,39.64
2022-07-31T12:19:41.058Z,38.55
2022-07-31T12:22:42.600Z,38.05
2022-07-31T12:25:46.329Z,38.31
2022-07-31T12:29:10.806Z,39.54
2022-07-31T12:32:12.280Z,40.42
2022-07-31T12:35:13.770Z,38.31
2022-07-31T12:38:38.247Z,38.45
2022-07-31T12:41:43.279Z,37.89
2022-07-31T12:44:49.654Z,37.21
2022-07-31T12:47:53.962Z,39.38
2022-07-31T12:50:55.469Z,37.78
2022-07-31T12:53:56.928Z,34.70
2022-07-31T12:56:58.393Z,35.20
2022-07-31T12:59:59.876Z,37.12
2022-07-31T13:03:01.994Z,35.01
2022-07-31T13:06:03.609Z,35.09
2022-07-31T13:09:05.256Z,34.76
2022-07-31T13:12:07.804Z,34.82
2022-07-31T13:15:10.132Z,37.33
2022-07-31T13:18:11.593Z,34.49
2022-07-31T13:21:13.051Z,37.87
2022-07-31T13:24:15.036Z,35.29
2022-07-31T13:27:18.102Z,37.98
2022-07-31T13:30:19.668Z,36.77
2022-07-31T13:33:21.098Z,35.17
2022-07-31T13:36:23.180Z,35.18
2022-07-31T13:39:24.702Z,34.63
2022-07-31T13:42:29.323Z,31.53
2022-07-31T13:45:31.505Z,33.36
2022-07-31T13:48:33.697Z,31.39
2022-07-31T13:51:35.739Z,31.66
2022-07-31T13:54:37.191Z,29.92
2022-07-31T13:57:38.610Z,31.94
2022-07-31T14:00:40.767Z,32.24
2022-07-31T14:03:42.333Z,31.84
2022-07-31T14:06:43.818Z,29.46
2022-07-31T14:09:54.620Z,30.19
2022-07-31T14:12:56.804Z,29.51
2022-07-31T14:15:58.237Z,30.08
2022-07-31T14:18:59.732Z,28.18
2022-07-31T14:22:01.185Z,29.40
2022-07-31T14:25:03.024Z,28.21
2022-07-31T14:28:06.303Z,28.92
2022-07-31T14:31:07.781Z,27.66
2022-07-31T14:34:09.280Z,28.13
2022-07-31T14:37:10.822Z,30.52
2022-07-31T14:40:12.848Z,29.62
2022-07-31T14:43:14.913Z,28.11
2022-07-31T14:46:16.321Z,27.62
2022-07-31T14:49:17.797Z,27.73
2022-07-31T14:52:19.334Z,27.85
2022-07-31T14:55:21.015Z,28.57
2022-07-31T14:58:22.629Z,28.55
2022-07-31T15:01:24.171Z,29.24
2022-07-31T15:04:28.305Z,29.19
2022-07-31T15:07:35.181Z,28.43
2022-07-31T15:10:38.097Z,29.66
2022-07-31T15:13:39.555Z,29.89
2022-07-31T15:16:41.081Z,27.78
2022-07-31T15:19:42.599Z,27.71
2022-07-31T15:22:44.121Z,28.78
2022-07-31T15:25:46.196Z,28.35
2022-07-31T15:28:47.717Z,27.25
2022-07-31T15:31:49.258Z,30.62
2022-07-31T15:34:50.809Z,27.83
2022-07-31T15:37:52.278Z,27.35
2022-07-31T15:40:53.773Z,28.66
2022-07-31T15:43:55.508Z,27.13
2022-07-31T15:46:57.022Z,27.41
2022-07-31T15:49:58.820Z,27.02
2022-07-31T15:53:00.860Z,27.79
2022-07-31T15:56:04.275Z,28.24
2022-07-31T15:59:06.964Z,27.07
2022-07-31T16:02:08.459Z,26.85
2022-07-31T16:05:12.031Z,26.19
2022-07-31T16:08:34.381Z,26.70
2022-07-31T16:12:03.993Z,26.40
2022-07-31T16:14:58.756Z,27.50
2022-07-31T16:18:00.691Z,27.95
2022-07-31T16:21:02.224Z,28.69
2022-07-31T16:24:04.554Z,29.27
2022-07-31T16:27:06.522Z,27.81
2022-07-31T16:30:11.770Z,27.58
2022-07-31T16:33:13.609Z,28.15
2022-07-31T16:36:17.656Z,25.70
2022-07-31T16:39:22.236Z,28.23
2022-07-31T16:42:23.782Z,28.42
2022-07-31T16:45:25.322Z,28.02
2022-07-31T16:48:26.817Z,28.16
2022-07-31T16:51:28.230Z,30.03
2022-07-31T16:54:29.703Z,29.05
2022-07-31T16:57:31.215Z,28.58
2022-07-31T17:00:32.781Z,26.88
2022-07-31T17:04:01.001Z,26.58
2022-07-31T17:06:56.165Z,26.98
2022-07-31T17:09:57.741Z,29.59
2022-07-31T17:12:59.380Z,31.08
2022-07-31T17:16:00.830Z,31.72
2022-07-31T17:19:05.443Z,32.78
2022-07-31T17:22:08.098Z,32.29
2022-07-31T17:25:12.473Z,32.61
2022-07-31T17:28:15.456Z,32.14
2022-07-31T17:31:18.395Z,29.90
2022-07-31T17:34:19.876Z,27.97
2022-07-31T17:37:21.421Z,29.99
2022-07-31T17:40:42.447Z,28.80
2022-07-31T17:43:50.770Z,29.95
2022-07-31T17:46:55.057Z,29.53
2022-07-31T17:49:57.315Z,31.46
2022-07-31T17:52:58.889Z,35.43
2022-07-31T17:56:00.314Z,36.54
2022-07-31T17:59:06.630Z,37.04
2022-07-31T18:02:08.500Z,37.13
2022-07-31T18:05:10.506Z,37.87
2022-07-31T18:08:11.972Z,37.86
2022-07-31T18:11:13.538Z,37.50
2022-07-31T18:14:15.350Z,39.41
2022-07-31T18:17:20.633Z,38.52
2022-07-31T18:20:22.131Z,39.26
2022-07-31T18:23:29.285Z,39.96
2022-07-31T18:26:35.277Z,40.10
2022-07-31T18:29:36.965Z,39.86
2022-07-31T18:32:38.390Z,40.91
2022-07-31T18:35:41.529Z,42.36
2022-07-31T18:38:43.019Z,42.18
2022-07-31T18:41:48.641Z,44.78
2022-07-31T18:44:51.345Z,46.35
2022-07-31T18:47:53.337Z,45.36
2022-07-31T18:50:58.610Z,41.77
2022-07-31T18:54:05.909Z,42.46
2022-07-31T18:57:08.505Z,43.43
2022-07-31T19:00:10.749Z,44.72
2022-07-31T19:03:12.220Z,44.76
2022-07-31T19:06:13.758Z,45.88
2022-07-31T19:09:15.469Z,46.29
2022-07-31T19:12:17.050Z,50.15
2022-07-31T19:15:18.493Z,51.17
2022-07-31T19:18:24.384Z,49.84
2022-07-31T19:21:42.530Z,51.05
2022-07-31T19:24:44.319Z,50.60
2022-07-31T19:27:47.894Z,51.55
2022-07-31T19:30:50.911Z,50.53
2022-07-31T19:33:52.505Z,50.15
2022-07-31T19:36:54.020Z,52.03
2022-07-31T19:39:55.423Z,49.40
2022-07-31T19:42:58.790Z,50.19
2022-07-31T19:46:12.051Z,52.27
2022-07-31T19:49:14.266Z,54.17
2022-07-31T19:52:15.874Z,54.97
2022-07-31T19:55:17.423Z,55.80
2022-07-31T19:58:21.153Z,52.44
2022-07-31T20:01:22.743Z,51.76
2022-07-31T20:04:25.046Z,52.76
2022-07-31T20:07:32.237Z,52.74
2022-07-31T20:10:34.364Z,53.50
2022-07-31T20:13:38.570Z,54.72
2022-07-31T20:16:41.173Z,56.52
2022-07-31T20:20:15.106Z,59.43
2022-07-31T20:23:05.546Z,60.31
2022-07-31T20:26:10.434Z,63.27
2022-07-31T20:29:11.956Z,64.36
2022-07-31T20:32:13.545Z,65.61
2022-07-31T20:35:35.220Z,64.66
2022-07-31T20:38:36.774Z,69.51
2022-07-31T20:41:38.230Z,69.79
2022-07-31T20:44:41.401Z,70.70
2022-07-31T20:47:42.883Z,73.91
2022-07-31T20:50:47.765Z,77.14
2022-07-31T20:53:50.968Z,78.96
2022-07-31T20:56:52.478Z,82.36
2022-07-31T20:59:54.002Z,81.43
2022-07-31T21:02:55.658Z,80.84
2022-07-31T21:05:57.182Z,83.81
2022-07-31T21:08:58.627Z,84.79
2022-07-31T21:12:08.487Z,87.29
2022-07-31T21:15:40.732Z,86.76
2022-07-31T21:18:34.973Z,85.77
2022-07-31T21:21:37.261Z,83.85
2022-07-31T21:24:38.906Z,87.40
2022-07-31T21:27:40.809Z,86.53
2022-07-31T21:30:42.513Z,86.39
2022-07-31T21:33:45.288Z,88.30
2022-07-31T21:36:48.141Z,89.97
2022-07-31T21:39:50.520Z,88.45
2022-07-31T21:42:56.497Z,92.34
2022-07-31T21:46:02.898Z,95.31
2022-07-31T21:49:04.567Z,94.12
2022-07-31T21:52:07.253Z,95.94
2022-07-31T21:55:09.484Z,99.75
2022-07-31T21:58:12.476Z,96.55
2022-07-31T22:01:15.159Z,94.08
2022-07-31T22:04:18.063Z,100.00
2022-07-31T22:07:32.150Z,98.49
2022-07-31T22:10:33.836Z,96.78
2022-07-31T22:13:35.629Z,100.00
2022-07-31T22:16:38.324Z,100.00
2022-07-31T22:19:44.367Z,100.00
2022-07-31T22:22:49.772Z,100.00
2022-07-31T22:25:51.333Z,100.00
2022-07-31T22:28:53.613Z,100.00
2022-07-31T22:31:55.307Z,100.00
2022-07-31T22:34:56.920Z,100.00
2022-07-31T22:37:58.393Z,100.00
2022-07-31T22:41:00.934Z,100.00
2022-07-31T22:44:14.159Z,100.00
2022-07-31T22:47:17.264Z,100.00
2022-07-31T22:50:19.057Z,100.00
2022-07-31T22:53:20.538Z,100.00
2022-07-31T22:56:22.215Z,100.00
2022-07-31T22:59:23.644Z,100.00
2022-07-31T23:02:25.256Z,100.00
2022-07-31T23:05:26.813Z,100.00
2022-07-31T23:08:28.259Z,100.00
2022-07-31T23:11:30.061Z,100.00
2022-07-31T23:14:31.560Z,100.00
2022-07-31T23:17:33.023Z,100.00
2022-07-31T23:20:34.561Z,100.00
2022-07-31T23:23:36.052Z,100.00
2022-07-31T23:26:37.589Z,100.00
2022-07-31T23:29:41.583Z,100.00
2022-07-31T23:32:43.146Z,100.00
2022-07-31T23:35:44.615Z,100.00
2022-07-31T23:38:46.648Z,100.00
2022-07-31T23:42:06.972Z,100.00
2022-07-31T23:45:12.169Z,100.00
2022-07-31T23:48:14.924Z,100.00
2022-07-31T23:51:16.611Z,100.00
2022-07-31T23:54:22.406Z,100.00
2022-07-31T23:57:24.120Z,100.00
